createdAt,value
2022-08-02T00:00:56.000Z,14
2022-08-02T00:01:58.805Z,14
2022-08-02T00:03:01.104Z,14
2022-08-02T00:04:03.739Z,14
2022-08-02T00:05:06.945Z,13
2022-08-02T00:06:08.536Z,13
2022-08-02T00:07:10.622Z,13
2022-08-02T00:08:12.465Z,12
2022-08-02T00:09:14.279Z,13
2022-08-02T00:10:16.907Z,13
2022-08-02T00:11:19.021Z,14
2022-08-02T00:12:20.812Z,14
2022-08-02T00:13:21.857Z,14
2022-08-02T00:14:26.779Z,14
2022-08-02T00:15:28.019Z,15
2022-08-02T00:16:37.364Z,15
2022-08-02T00:17:39.555Z,15
2022-08-02T00:18:41.349Z,15
2022-08-02T00:19:42.575Z,15
2022-08-02T00:20:44.372Z,14
2022-08-02T00:21:46.459Z,13
2022-08-02T00:22:48.965Z,13
2022-08-02T00:24:03.501Z,13
2022-08-02T00:25:32.035Z,12
2022-08-02T00:26:34.382Z,12
2022-08-02T00:27:35.381Z,12
2022-08-02T00:28:36.679Z,12
2022-08-02T00:29:42.557Z,12
2022-08-02T00:30:55.864Z,12
2022-08-02T00:31:57.660Z,12
2022-08-02T00:32:59.446Z,12
2022-08-02T00:34:05.532Z,12
2022-08-02T00:35:40.449Z,12
2022-08-02T00:36:42.132Z,12
2022-08-02T00:37:44.247Z,12
2022-08-02T00:38:46.347Z,12
2022-08-02T00:39:48.160Z,12
2022-08-02T00:40:49.773Z,11
2022-08-02T00:42:03.813Z,11
2022-08-02T00:43:07.164Z,11
2022-08-02T00:44:08.435Z,10
2022-08-02T00:45:14.706Z,10
2022-08-02T00:46:18.118Z,10
2022-08-02T00:47:20.177Z,10
2022-08-02T00:48:22.564Z,11
2022-08-02T00:49:24.531Z,11
2022-08-02T00:50:27.526Z,11
2022-08-02T00:51:28.888Z,12
2022-08-02T00:52:31.239Z,12
2022-08-02T00:53:33.316Z,11
2022-08-02T00:54:35.680Z,11
2022-08-02T00:55:37.204Z,11
2022-08-02T00:56:40.814Z,10
2022-08-02T00:57:56.298Z,11
2022-08-02T00:59:02.511Z,11
2022-08-02T01:00:04.627Z,11
2022-08-02T01:01:07.323Z,11
2022-08-02T01:02:11.023Z,11
2022-08-02T01:03:17.146Z,11
2022-08-02T01:04:26.928Z,11
2022-08-02T01:05:42.855Z,12
2022-08-02T01:07:18.880Z,12
2022-08-02T01:08:20.662Z,12
2022-08-02T01:09:37.361Z,11
2022-08-02T01:10:40.377Z,10
2022-08-02T01:11:43.004Z,9
2022-08-02T01:12:45.115Z,9
2022-08-02T01:13:46.425Z,9
2022-08-02T01:14:51.627Z,9
2022-08-02T01:15:54.336Z,10
2022-08-02T01:16:56.769Z,10
2022-08-02T01:17:59.169Z,9
2022-08-02T01:19:00.673Z,9
2022-08-02T01:20:16.384Z,9
2022-08-02T01:21:18.813Z,9
2022-08-02T01:22:21.169Z,9
2022-08-02T01:24:04.102Z,8
2022-08-02T01:25:06.499Z,8
2022-08-02T01:26:08.380Z,9
2022-08-02T01:27:09.478Z,10
2022-08-02T01:28:11.022Z,10
2022-08-02T01:29:13.282Z,10
2022-08-02T01:30:15.635Z,10
2022-08-02T01:31:17.485Z,10
2022-08-02T01:32:19.312Z,10
2022-08-02T01:33:21.956Z,10
2022-08-02T01:34:23.754Z,9
2022-08-02T01:35:25.309Z,9
2022-08-02T01:36:26.832Z,9
2022-08-02T01:37:28.930Z,10
2022-08-02T01:38:31.292Z,10
2022-08-02T01:39:32.674Z,10
2022-08-02T01:40:33.855Z,10
2022-08-02T01:41:35.368Z,10
2022-08-02T01:42:37.498Z,10
2022-08-02T01:43:39.121Z,9
2022-08-02T01:44:40.914Z,9
2022-08-02T01:45:43.545Z,9
2022-08-02T01:46:45.624Z,9
2022-08-02T01:47:49.172Z,9
2022-08-02T01:48:50.222Z,9
2022-08-02T01:49:51.636Z,9
2022-08-02T01:50:52.878Z,9
2022-08-02T01:51:54.997Z,9
2022-08-02T01:52:56.298Z,8
2022-08-02T01:53:58.100Z,8
2022-08-02T01:55:00.189Z,9
2022-08-02T01:56:01.515Z,9
2022-08-02T01:57:03.935Z,9
2022-08-02T01:58:05.501Z,9
2022-08-02T01:59:07.329Z,9
2022-08-02T02:00:09.399Z,9
2022-08-02T02:01:14.377Z,9
2022-08-02T02:02:21.549Z,9
2022-08-02T02:03:24.400Z,9
2022-08-02T02:04:26.751Z,9
2022-08-02T02:05:28.560Z,9
2022-08-02T02:06:30.385Z,9
2022-08-02T02:07:34.613Z,9
2022-08-02T02:08:36.986Z,9
2022-08-02T02:09:47.706Z,10
2022-08-02T02:10:52.278Z,10
2022-08-02T02:12:03.252Z,10
2022-08-02T02:13:18.115Z,11
2022-08-02T02:14:19.460Z,10
2022-08-02T02:15:21.411Z,10
2022-08-02T02:16:23.194Z,9
2022-08-02T02:17:50.860Z,9
2022-08-02T02:19:21.167Z,9
2022-08-02T02:20:24.966Z,9
2022-08-02T02:21:25.961Z,10
2022-08-02T02:22:31.768Z,10
2022-08-02T02:23:39.396Z,9
2022-08-02T02:24:46.371Z,9
2022-08-02T02:25:50.058Z,9
2022-08-02T02:26:57.004Z,8
2022-08-02T02:28:00.272Z,8
2022-08-02T02:29:01.278Z,8
2022-08-02T02:30:02.328Z,8
2022-08-02T02:31:04.669Z,9
2022-08-02T02:32:07.065Z,8
2022-08-02T02:33:13.459Z,8
2022-08-02T02:34:17.764Z,8
2022-08-02T02:35:25.333Z,8
2022-08-02T02:36:31.886Z,9
2022-08-02T02:37:33.552Z,10
2022-08-02T02:38:39.259Z,9
2022-08-02T02:39:41.362Z,9
2022-08-02T02:40:42.367Z,8
2022-08-02T02:41:44.503Z,7
2022-08-02T02:42:49.182Z,8
2022-08-02T02:43:51.940Z,7
2022-08-02T02:44:53.369Z,8
2022-08-02T02:45:55.237Z,8
2022-08-02T02:46:56.543Z,8
2022-08-02T02:47:58.273Z,8
2022-08-02T02:48:59.916Z,9
2022-08-02T02:50:02.048Z,8
2022-08-02T02:51:04.155Z,9
2022-08-02T02:52:14.561Z,9
2022-08-02T02:53:20.497Z,8
2022-08-02T02:54:27.030Z,8
2022-08-02T02:55:39.460Z,8
2022-08-02T02:57:03.850Z,8
2022-08-02T02:58:05.543Z,8
2022-08-02T02:59:07.090Z,8
2022-08-02T03:00:08.938Z,8
2022-08-02T03:01:15.071Z,8
2022-08-02T03:02:18.037Z,8
2022-08-02T03:03:19.770Z,8
2022-08-02T03:04:26.418Z,8
2022-08-02T03:05:36.520Z,8
2022-08-02T03:06:44.583Z,8
2022-08-02T03:07:49.439Z,9
2022-08-02T03:08:51.788Z,9
2022-08-02T03:09:56.611Z,9
2022-08-02T03:10:58.446Z,9
2022-08-02T03:11:59.623Z,9
2022-08-02T03:13:00.917Z,9
2022-08-02T03:14:02.147Z,9
2022-08-02T03:15:03.935Z,9
2022-08-02T03:16:06.042Z,9
2022-08-02T03:17:08.099Z,9
2022-08-02T03:18:09.759Z,8
2022-08-02T03:19:11.020Z,8
2022-08-02T03:20:12.007Z,7
2022-08-02T03:21:13.018Z,7
2022-08-02T03:22:15.327Z,8
2022-08-02T03:23:16.902Z,8
2022-08-02T03:24:27.854Z,8
2022-08-02T03:25:30.000Z,9
2022-08-02T03:26:31.508Z,8
2022-08-02T03:27:32.503Z,8
2022-08-02T03:28:34.056Z,7
2022-08-02T03:29:35.905Z,8
2022-08-02T03:30:37.126Z,8
2022-08-02T03:31:39.219Z,9
2022-08-02T03:32:40.783Z,9
2022-08-02T03:33:41.810Z,9
2022-08-02T03:34:44.443Z,9
2022-08-02T03:35:46.280Z,9
2022-08-02T03:36:47.836Z,9
2022-08-02T03:37:50.476Z,9
2022-08-02T03:38:52.300Z,9
2022-08-02T03:39:54.118Z,9
2022-08-02T03:40:55.905Z,9
2022-08-02T03:41:58.044Z,9
2022-08-02T03:43:00.442Z,9
2022-08-02T03:44:02.507Z,9
2022-08-02T03:45:08.279Z,9
2022-08-02T03:46:10.386Z,9
2022-08-02T03:47:12.173Z,9
2022-08-02T03:48:29.439Z,9
2022-08-02T03:49:37.080Z,8
2022-08-02T03:50:38.823Z,7
2022-08-02T03:51:39.848Z,7
2022-08-02T03:52:41.123Z,6
2022-08-02T03:53:42.140Z,7
2022-08-02T03:54:46.087Z,7
2022-08-02T03:55:47.395Z,8
2022-08-02T03:56:49.768Z,8
2022-08-02T03:57:51.322Z,8
2022-08-02T03:58:52.854Z,8
2022-08-02T03:59:54.118Z,6
2022-08-02T04:00:56.237Z,6
2022-08-02T04:01:58.371Z,6
2022-08-02T04:03:05.538Z,6
2022-08-02T04:04:20.196Z,6
2022-08-02T04:05:22.254Z,6
2022-08-02T04:06:27.105Z,7
2022-08-02T04:08:01.139Z,7
2022-08-02T04:09:39.888Z,7
2022-08-02T04:10:40.901Z,7
2022-08-02T04:11:41.904Z,7
2022-08-02T04:12:43.126Z,7
2022-08-02T04:13:45.483Z,7
2022-08-02T04:14:51.834Z,7
2022-08-02T04:15:53.366Z,7
2022-08-02T04:16:55.149Z,7
2022-08-02T04:17:57.489Z,8
2022-08-02T04:18:58.769Z,8
2022-08-02T04:20:00.866Z,7
2022-08-02T04:21:03.493Z,7
2022-08-02T04:22:05.321Z,6
2022-08-02T04:23:06.549Z,6
2022-08-02T04:24:10.952Z,7
2022-08-02T04:25:34.497Z,7
2022-08-02T04:26:44.140Z,8
2022-08-02T04:28:15.774Z,8
2022-08-02T04:29:30.610Z,9
2022-08-02T04:30:32.232Z,9
2022-08-02T04:31:34.856Z,9
2022-08-02T04:32:42.170Z,8
2022-08-02T04:33:43.718Z,8
2022-08-02T04:34:59.573Z,8
2022-08-02T04:36:31.139Z,7
2022-08-02T04:37:33.459Z,7
2022-08-02T04:38:36.099Z,7
2022-08-02T04:39:38.758Z,7
2022-08-02T04:40:41.099Z,7
2022-08-02T04:41:43.830Z,7
2022-08-02T04:42:46.719Z,7
2022-08-02T04:43:49.066Z,6
2022-08-02T04:44:50.902Z,6
2022-08-02T04:45:52.765Z,6
2022-08-02T04:46:54.062Z,6
2022-08-02T04:48:04.377Z,8
2022-08-02T04:49:07.838Z,7
2022-08-02T04:50:10.350Z,7
2022-08-02T04:51:12.405Z,7
2022-08-02T04:52:14.787Z,7
2022-08-02T04:53:16.337Z,7
2022-08-02T04:54:17.844Z,7
2022-08-02T04:55:19.656Z,8
2022-08-02T04:56:23.844Z,8
2022-08-02T04:57:25.660Z,9
2022-08-02T04:58:42.513Z,9
2022-08-02T04:59:43.887Z,9
2022-08-02T05:00:45.707Z,9
2022-08-02T05:01:47.726Z,8
2022-08-02T05:02:49.025Z,8
2022-08-02T05:03:50.846Z,8
2022-08-02T05:04:52.640Z,8
2022-08-02T05:05:53.980Z,9
2022-08-02T05:06:55.264Z,9
2022-08-02T05:07:56.790Z,9
2022-08-02T05:08:59.213Z,9
2022-08-02T05:10:00.597Z,9
2022-08-02T05:11:04.772Z,9
2022-08-02T05:12:06.055Z,8
2022-08-02T05:13:10.109Z,8
2022-08-02T05:14:11.620Z,8
2022-08-02T05:15:13.742Z,8
2022-08-02T05:16:16.088Z,9
2022-08-02T05:17:17.599Z,9
2022-08-02T05:18:19.737Z,9
2022-08-02T05:19:21.006Z,9
2022-08-02T05:20:22.851Z,8
2022-08-02T05:21:23.884Z,8
2022-08-02T05:22:26.230Z,8
2022-08-02T05:23:27.792Z,8
2022-08-02T05:24:33.935Z,8
2022-08-02T05:25:35.793Z,8
2022-08-02T05:26:36.824Z,8
2022-08-02T05:27:38.622Z,8
2022-08-02T05:28:40.828Z,8
2022-08-02T05:29:52.941Z,8
2022-08-02T05:30:58.764Z,8
2022-08-02T05:32:00.606Z,8
2022-08-02T05:33:02.688Z,8
2022-08-02T05:34:06.606Z,7
2022-08-02T05:35:13.052Z,7
2022-08-02T05:36:14.064Z,7
2022-08-02T05:37:21.756Z,7
2022-08-02T05:38:26.102Z,7
2022-08-02T05:39:32.414Z,8
2022-08-02T05:40:54.338Z,8
2022-08-02T05:41:57.035Z,8
2022-08-02T05:42:59.655Z,8
2022-08-02T05:44:02.017Z,8
2022-08-02T05:45:04.439Z,8
2022-08-02T05:46:06.230Z,9
2022-08-02T05:47:08.599Z,9
2022-08-02T05:48:10.153Z,9
2022-08-02T05:49:11.181Z,9
2022-08-02T05:50:16.443Z,9
2022-08-02T05:51:17.436Z,8
2022-08-02T05:52:18.421Z,8
2022-08-02T05:53:19.926Z,8
2022-08-02T05:54:21.204Z,8
2022-08-02T05:55:23.615Z,8
2022-08-02T05:56:26.255Z,8
2022-08-02T05:57:28.079Z,7
2022-08-02T05:58:30.178Z,7
2022-08-02T05:59:31.182Z,8
2022-08-02T06:00:33.021Z,8
2022-08-02T06:01:34.420Z,9
2022-08-02T06:02:35.918Z,9
2022-08-02T06:03:38.015Z,9
2022-08-02T06:04:39.540Z,9
2022-08-02T06:05:41.348Z,9
2022-08-02T06:06:42.628Z,8
2022-08-02T06:07:43.938Z,9
2022-08-02T06:08:47.723Z,9
2022-08-02T06:09:53.467Z,9
2022-08-02T06:10:55.181Z,10
2022-08-02T06:12:01.427Z,11
2022-08-02T06:13:04.204Z,11
2022-08-02T06:14:05.450Z,12
2022-08-02T06:15:07.814Z,13
2022-08-02T06:16:14.011Z,13
2022-08-02T06:17:33.052Z,14
2022-08-02T06:18:34.088Z,15
2022-08-02T06:19:36.528Z,16
2022-08-02T06:20:56.326Z,18
2022-08-02T06:23:33.009Z,19
2022-08-02T06:24:58.185Z,19
2022-08-02T06:26:00.306Z,17
2022-08-02T06:27:02.827Z,15
2022-08-02T06:28:03.828Z,14
2022-08-02T06:29:13.021Z,13
2022-08-02T06:30:14.527Z,11
2022-08-02T06:31:16.596Z,12
2022-08-02T06:32:21.669Z,13
2022-08-02T06:33:23.504Z,16
2022-08-02T06:34:25.621Z,17
2022-08-02T06:35:27.241Z,17
2022-08-02T06:36:28.241Z,15
2022-08-02T06:37:30.701Z,13
2022-08-02T06:38:35.062Z,13
2022-08-02T06:39:37.131Z,13
2022-08-02T06:40:41.973Z,13
2022-08-02T06:41:43.497Z,13
2022-08-02T06:42:45.427Z,13
2022-08-02T06:43:47.333Z,12
2022-08-02T06:44:57.623Z,13
2022-08-02T06:46:34.142Z,14
2022-08-02T06:48:15.328Z,13
2022-08-02T06:49:17.065Z,13
2022-08-02T06:50:21.997Z,12
2022-08-02T06:51:24.621Z,12
2022-08-02T06:52:28.650Z,12
2022-08-02T06:53:32.089Z,12
2022-08-02T06:54:33.096Z,10
2022-08-02T06:55:42.803Z,10
2022-08-02T06:56:45.686Z,10
2022-08-02T06:57:48.825Z,10
2022-08-02T06:58:53.933Z,10
2022-08-02T06:59:55.445Z,10
2022-08-02T07:00:57.280Z,9
2022-08-02T07:01:58.558Z,8
2022-08-02T07:03:00.810Z,7
2022-08-02T07:04:02.062Z,7
2022-08-02T07:05:04.170Z,7
2022-08-02T07:06:05.443Z,6
2022-08-02T07:07:06.443Z,7
2022-08-02T07:08:09.563Z,6
2022-08-02T07:09:20.358Z,6
2022-08-02T07:10:23.201Z,6
2022-08-02T07:11:24.980Z,7
2022-08-02T07:12:26.256Z,8
2022-08-02T07:13:28.660Z,8
2022-08-02T07:14:29.753Z,8
2022-08-02T07:15:37.082Z,7
2022-08-02T07:16:38.380Z,8
2022-08-02T07:17:39.926Z,8
2022-08-02T07:18:42.321Z,8
2022-08-02T07:19:43.867Z,8
2022-08-02T07:20:46.266Z,8
2022-08-02T07:21:57.386Z,9
2022-08-02T07:23:03.109Z,9
2022-08-02T07:24:04.654Z,9
2022-08-02T07:25:05.930Z,9
2022-08-02T07:26:06.932Z,10
2022-08-02T07:27:11.453Z,10
2022-08-02T07:28:22.225Z,10
2022-08-02T07:29:27.179Z,11
2022-08-02T07:30:49.161Z,10
2022-08-02T07:31:50.442Z,10
2022-08-02T07:32:52.587Z,10
2022-08-02T07:33:55.213Z,8
2022-08-02T07:34:57.590Z,7
2022-08-02T07:36:08.924Z,7
2022-08-02T07:37:36.288Z,6
2022-08-02T07:39:06.309Z,7
2022-08-02T07:40:14.243Z,8
2022-08-02T07:41:22.313Z,7
2022-08-02T07:42:25.541Z,8
2022-08-02T07:43:27.086Z,8
2022-08-02T07:44:28.871Z,8
2022-08-02T07:45:31.900Z,8
2022-08-02T07:46:57.548Z,7
2022-08-02T07:47:59.159Z,7
2022-08-02T07:49:00.542Z,7
2022-08-02T07:50:03.105Z,7
2022-08-02T07:51:04.648Z,7
2022-08-02T07:52:06.223Z,8
2022-08-02T07:53:08.708Z,8
2022-08-02T07:54:10.506Z,7
2022-08-02T07:55:18.753Z,8
2022-08-02T07:56:21.410Z,8
2022-08-02T07:57:23.221Z,7
2022-08-02T07:58:26.546Z,8
2022-08-02T07:59:28.920Z,8
2022-08-02T08:00:30.461Z,8
2022-08-02T08:01:31.807Z,8
2022-08-02T08:02:36.362Z,8
2022-08-02T08:03:37.649Z,8
2022-08-02T08:04:38.919Z,7
2022-08-02T08:05:40.001Z,8
2022-08-02T08:06:41.527Z,7
2022-08-02T08:07:43.979Z,7
2022-08-02T08:08:46.332Z,7
2022-08-02T08:09:47.569Z,7
2022-08-02T08:10:49.683Z,8
2022-08-02T08:11:52.301Z,8
2022-08-02T08:12:54.956Z,7
2022-08-02T08:13:57.334Z,7
2022-08-02T08:14:58.610Z,6
2022-08-02T08:16:00.416Z,7
2022-08-02T08:17:01.494Z,7
2022-08-02T08:18:02.801Z,8
2022-08-02T08:19:06.106Z,8
2022-08-02T08:20:10.073Z,8
2022-08-02T08:21:17.078Z,9
2022-08-02T08:22:18.654Z,8
2022-08-02T08:23:20.570Z,7
2022-08-02T08:24:22.374Z,7
2022-08-02T08:25:24.739Z,7
2022-08-02T08:26:40.189Z,7
2022-08-02T08:27:42.067Z,8
2022-08-02T08:28:44.706Z,8
2022-08-02T08:29:45.701Z,7
2022-08-02T08:30:47.303Z,7
2022-08-02T08:31:49.660Z,7
2022-08-02T08:32:52.038Z,7
2022-08-02T08:33:53.612Z,6
2022-08-02T08:34:55.987Z,7
2022-08-02T08:35:57.540Z,6
2022-08-02T08:36:58.915Z,6
2022-08-02T08:38:03.053Z,6
2022-08-02T08:39:09.235Z,6
2022-08-02T08:40:11.067Z,5
2022-08-02T08:41:19.788Z,5
2022-08-02T08:42:21.931Z,5
2022-08-02T08:43:23.542Z,5
2022-08-02T08:44:25.267Z,5
2022-08-02T08:45:26.826Z,5
2022-08-02T08:46:29.170Z,5
2022-08-02T08:47:33.522Z,5
2022-08-02T08:48:36.369Z,5
2022-08-02T08:49:38.740Z,5
2022-08-02T08:50:55.350Z,5
2022-08-02T08:51:56.346Z,5
2022-08-02T08:52:58.975Z,5
2022-08-02T08:54:01.041Z,5
2022-08-02T08:55:02.320Z,5
2022-08-02T08:56:03.592Z,5
2022-08-02T08:57:07.963Z,5
2022-08-02T08:58:09.772Z,5
2022-08-02T08:59:11.314Z,5
2022-08-02T09:00:13.138Z,5
2022-08-02T09:01:15.863Z,5
2022-08-02T09:02:20.536Z,5
2022-08-02T09:03:33.788Z,5
2022-08-02T09:04:35.742Z,6
2022-08-02T09:05:37.048Z,6
2022-08-02T09:06:39.124Z,6
2022-08-02T09:07:41.760Z,6
2022-08-02T09:08:43.918Z,6
2022-08-02T09:09:45.709Z,5
2022-08-02T09:10:50.152Z,5
2022-08-02T09:11:51.225Z,6
2022-08-02T09:13:01.230Z,6
2022-08-02T09:14:49.993Z,6
2022-08-02T09:15:52.242Z,6
2022-08-02T09:16:54.112Z,6
2022-08-02T09:17:55.903Z,5
2022-08-02T09:18:58.261Z,6
2022-08-02T09:20:08.141Z,7
2022-08-02T09:21:10.263Z,7
2022-08-02T09:22:12.693Z,8
2022-08-02T09:23:18.154Z,7
2022-08-02T09:24:20.009Z,7
2022-08-02T09:25:22.099Z,6
2022-08-02T09:26:23.384Z,6
2022-08-02T09:27:25.759Z,6
2022-08-02T09:28:27.225Z,6
2022-08-02T09:29:31.065Z,5
2022-08-02T09:30:42.428Z,5
2022-08-02T09:31:45.707Z,6
2022-08-02T09:32:52.099Z,6
2022-08-02T09:33:53.610Z,6
2022-08-02T09:34:55.710Z,6
2022-08-02T09:36:05.690Z,6
2022-08-02T09:37:09.451Z,6
2022-08-02T09:38:15.858Z,6
2022-08-02T09:39:17.650Z,6
2022-08-02T09:40:18.919Z,5
2022-08-02T09:41:21.273Z,5
2022-08-02T09:42:22.916Z,5
2022-08-02T09:43:32.996Z,5
2022-08-02T09:44:34.278Z,5
2022-08-02T09:45:35.839Z,5
2022-08-02T09:46:37.974Z,5
2022-08-02T09:47:41.401Z,6
2022-08-02T09:48:42.914Z,6
2022-08-02T09:49:54.606Z,6
2022-08-02T09:50:59.004Z,7
2022-08-02T09:52:01.079Z,8
2022-08-02T09:53:02.380Z,9
2022-08-02T09:54:08.656Z,10
2022-08-02T09:55:12.055Z,11
2022-08-02T09:56:29.539Z,12
2022-08-02T09:57:37.201Z,13
2022-08-02T09:58:39.114Z,13
2022-08-02T09:59:40.385Z,14
2022-08-02T10:00:52.280Z,14
2022-08-02T10:01:59.115Z,14
2022-08-02T10:03:23.254Z,14
2022-08-02T10:04:53.142Z,13
2022-08-02T10:05:57.350Z,13
2022-08-02T10:07:07.364Z,14
2022-08-02T10:08:12.785Z,12
2022-08-02T10:09:14.722Z,10
2022-08-02T10:10:16.862Z,9
2022-08-02T10:11:18.666Z,8
2022-08-02T10:12:20.737Z,8
2022-08-02T10:13:22.664Z,9
2022-08-02T10:14:23.796Z,9
2022-08-02T10:15:27.542Z,9
2022-08-02T10:16:29.330Z,8
2022-08-02T10:17:30.339Z,7
2022-08-02T10:18:39.712Z,7
2022-08-02T10:20:01.456Z,7
2022-08-02T10:21:06.707Z,7
2022-08-02T10:22:07.977Z,8
2022-08-02T10:23:10.654Z,9
2022-08-02T10:24:12.443Z,9
2022-08-02T10:25:13.973Z,9
2022-08-02T10:26:16.604Z,8
2022-08-02T10:27:18.979Z,8
2022-08-02T10:28:22.076Z,7
2022-08-02T10:29:23.351Z,7
2022-08-02T10:30:25.442Z,7
2022-08-02T10:31:27.279Z,8
2022-08-02T10:32:28.841Z,7
2022-08-02T10:33:31.018Z,8
2022-08-02T10:34:33.079Z,8
2022-08-02T10:35:36.457Z,8
2022-08-02T10:36:37.543Z,9
2022-08-02T10:37:47.995Z,9
2022-08-02T10:38:54.601Z,10
2022-08-02T10:39:56.116Z,9
2022-08-02T10:40:57.696Z,10
2022-08-02T10:41:59.029Z,12
2022-08-02T10:43:01.606Z,13
2022-08-02T10:44:02.977Z,14
2022-08-02T10:45:04.770Z,13
2022-08-02T10:46:06.670Z,10
2022-08-02T10:47:08.729Z,8
2022-08-02T10:48:16.665Z,8
2022-08-02T10:49:38.388Z,8
2022-08-02T10:50:45.422Z,7
2022-08-02T10:51:47.266Z,7
2022-08-02T10:52:53.885Z,7
2022-08-02T10:53:55.559Z,7
2022-08-02T10:54:56.743Z,7
2022-08-02T10:56:00.728Z,8
2022-08-02T10:57:05.261Z,8
2022-08-02T10:58:07.885Z,8
2022-08-02T10:59:09.705Z,7
2022-08-02T11:00:11.354Z,7
2022-08-02T11:01:20.870Z,7
2022-08-02T11:02:24.114Z,7
2022-08-02T11:03:25.387Z,8
2022-08-02T11:04:26.657Z,8
2022-08-02T11:05:27.650Z,8
2022-08-02T11:06:45.051Z,7
2022-08-02T11:07:47.674Z,6
2022-08-02T11:08:51.147Z,6
2022-08-02T11:09:53.538Z,6
2022-08-02T11:10:54.619Z,6
2022-08-02T11:11:55.599Z,7
2022-08-02T11:12:57.416Z,6
2022-08-02T11:13:59.566Z,7
2022-08-02T11:15:02.021Z,7
2022-08-02T11:16:06.597Z,7
2022-08-02T11:17:14.085Z,7
2022-08-02T11:18:16.973Z,7
2022-08-02T11:19:18.010Z,8
2022-08-02T11:20:20.082Z,7
2022-08-02T11:21:22.428Z,8
2022-08-02T11:22:25.896Z,7
2022-08-02T11:23:43.880Z,7
2022-08-02T11:24:51.022Z,6
2022-08-02T11:26:03.480Z,7
2022-08-02T11:27:13.694Z,7
2022-08-02T11:28:15.802Z,7
2022-08-02T11:29:25.945Z,8
2022-08-02T11:30:27.640Z,9
2022-08-02T11:31:29.569Z,10
2022-08-02T11:32:31.565Z,10
2022-08-02T11:33:34.265Z,9
2022-08-02T11:34:37.170Z,9
2022-08-02T11:35:40.229Z,9
2022-08-02T11:36:42.383Z,10
2022-08-02T11:37:43.382Z,10
2022-08-02T11:38:44.611Z,10
2022-08-02T11:39:47.003Z,9
2022-08-02T11:40:49.067Z,9
2022-08-02T11:41:58.937Z,8
2022-08-02T11:43:00.405Z,8
2022-08-02T11:44:02.789Z,7
2022-08-02T11:45:04.249Z,8
2022-08-02T11:46:05.824Z,8
2022-08-02T11:47:07.098Z,8
2022-08-02T11:48:08.612Z,8
2022-08-02T11:49:11.100Z,7
2022-08-02T11:50:13.566Z,8
2022-08-02T11:51:15.641Z,8
2022-08-02T11:52:17.192Z,9
2022-08-02T11:53:18.474Z,9
2022-08-02T11:54:19.767Z,9
2022-08-02T11:55:20.786Z,9
2022-08-02T11:56:25.075Z,8
2022-08-02T11:57:26.447Z,7
2022-08-02T11:59:03.305Z,7
2022-08-02T12:00:05.178Z,7
2022-08-02T12:01:07.036Z,7
2022-08-02T12:02:10.002Z,8
2022-08-02T12:03:17.869Z,7
2022-08-02T12:04:22.627Z,8
2022-08-02T12:06:04.335Z,7
2022-08-02T12:07:30.381Z,7
2022-08-02T12:08:54.271Z,8
2022-08-02T12:10:00.599Z,8
2022-08-02T12:11:06.008Z,8
2022-08-02T12:12:07.235Z,8
2022-08-02T12:13:09.047Z,7
2022-08-02T12:14:10.883Z,7
2022-08-02T12:15:13.254Z,8
2022-08-02T12:16:14.823Z,8
2022-08-02T12:17:17.210Z,8
2022-08-02T12:18:18.487Z,8
2022-08-02T12:19:20.869Z,8
2022-08-02T12:20:22.185Z,8
2022-08-02T12:21:23.784Z,8
2022-08-02T12:22:27.145Z,7
2022-08-02T12:23:29.595Z,8
2022-08-02T12:25:01.750Z,8
2022-08-02T12:26:03.541Z,8
2022-08-02T12:27:04.840Z,8
2022-08-02T12:28:06.671Z,7
2022-08-02T12:29:08.280Z,6
2022-08-02T12:30:09.879Z,6
2022-08-02T12:31:14.701Z,6
2022-08-02T12:32:22.868Z,7
2022-08-02T12:33:24.694Z,7
2022-08-02T12:34:31.428Z,7
2022-08-02T12:35:34.270Z,6
2022-08-02T12:36:37.428Z,6
2022-08-02T12:37:38.704Z,6
2022-08-02T12:38:39.707Z,6
2022-08-02T12:39:41.065Z,6
2022-08-02T12:40:42.076Z,6
2022-08-02T12:41:51.461Z,6
2022-08-02T12:42:56.353Z,6
2022-08-02T12:43:58.708Z,6
2022-08-02T12:45:00.562Z,6
2022-08-02T12:46:02.142Z,6
2022-08-02T12:47:03.990Z,6
2022-08-02T12:48:05.810Z,6
2022-08-02T12:49:17.713Z,6
2022-08-02T12:50:21.282Z,6
2022-08-02T12:51:22.276Z,6
2022-08-02T12:52:23.553Z,6
2022-08-02T12:53:24.601Z,6
2022-08-02T12:54:29.164Z,6
2022-08-02T12:55:59.099Z,6
2022-08-02T12:57:05.081Z,6
2022-08-02T12:58:06.077Z,7
2022-08-02T12:59:07.909Z,7
2022-08-02T13:00:09.199Z,7
2022-08-02T13:01:10.205Z,7
2022-08-02T13:02:12.643Z,6
2022-08-02T13:04:07.358Z,6
2022-08-02T13:05:17.677Z,6
2022-08-02T13:07:51.693Z,7
2022-08-02T13:08:52.740Z,7
2022-08-02T13:10:00.440Z,6
2022-08-02T13:11:05.121Z,6
2022-08-02T13:12:06.672Z,6
2022-08-02T13:13:07.675Z,8
2022-08-02T13:14:11.429Z,10
2022-08-02T13:15:46.877Z,12
2022-08-02T13:16:52.451Z,12
2022-08-02T13:17:54.792Z,12
2022-08-02T13:18:57.232Z,11
2022-08-02T13:19:58.507Z,11
2022-08-02T13:21:05.207Z,11
2022-08-02T13:22:06.505Z,10
2022-08-02T13:23:21.051Z,8
2022-08-02T13:24:33.588Z,7
2022-08-02T13:25:58.337Z,6
2022-08-02T13:26:59.916Z,7
2022-08-02T13:28:10.295Z,8
2022-08-02T13:29:11.583Z,8
2022-08-02T13:30:13.099Z,9
2022-08-02T13:31:34.416Z,8
2022-08-02T13:32:37.894Z,8
2022-08-02T13:33:39.398Z,8
2022-08-02T13:34:41.257Z,7
2022-08-02T13:35:42.545Z,7
2022-08-02T13:36:44.333Z,6
2022-08-02T13:37:46.409Z,6
2022-08-02T13:38:48.263Z,6
2022-08-02T13:40:12.141Z,6
2022-08-02T13:41:24.118Z,6
2022-08-02T13:42:25.348Z,6
2022-08-02T13:43:26.642Z,7
2022-08-02T13:45:12.001Z,7
2022-08-02T13:46:16.617Z,7
2022-08-02T13:47:36.125Z,6
2022-08-02T13:49:21.859Z,6
2022-08-02T13:50:55.939Z,6
2022-08-02T13:51:57.852Z,7
2022-08-02T13:52:59.930Z,7
2022-08-02T13:54:02.075Z,6
2022-08-02T13:55:04.425Z,6
2022-08-02T13:56:14.075Z,6
2022-08-02T13:57:16.411Z,6
2022-08-02T13:58:17.422Z,6
2022-08-02T13:59:21.895Z,6
2022-08-02T14:01:01.394Z,6
2022-08-02T14:02:06.595Z,7
2022-08-02T14:03:12.076Z,7
2022-08-02T14:04:13.945Z,8
2022-08-02T14:05:16.082Z,9
2022-08-02T14:06:49.881Z,8
2022-08-02T14:07:52.229Z,8
2022-08-02T14:08:54.627Z,7
2022-08-02T14:09:56.416Z,6
2022-08-02T14:10:58.306Z,6
2022-08-02T14:12:00.414Z,7
2022-08-02T14:13:01.925Z,7
2022-08-02T14:14:03.492Z,8
2022-08-02T14:15:18.729Z,8
2022-08-02T14:16:19.960Z,9
2022-08-02T14:17:33.740Z,9
2022-08-02T14:18:36.140Z,10
2022-08-02T14:19:39.942Z,10
2022-08-02T14:20:41.418Z,9
2022-08-02T14:21:46.112Z,9
2022-08-02T14:22:49.476Z,8
2022-08-02T14:23:51.126Z,8
2022-08-02T14:24:52.500Z,8
2022-08-02T14:25:54.879Z,7
2022-08-02T14:26:57.301Z,7
2022-08-02T14:27:59.920Z,7
2022-08-02T14:29:02.257Z,7
2022-08-02T14:30:04.350Z,7
2022-08-02T14:31:06.736Z,7
2022-08-02T14:32:13.836Z,7
2022-08-02T14:33:18.430Z,7
2022-08-02T14:34:19.693Z,6
2022-08-02T14:35:21.543Z,7
2022-08-02T14:36:27.374Z,7
2022-08-02T14:37:29.291Z,7
2022-08-02T14:38:31.190Z,6
2022-08-02T14:39:42.590Z,6
2022-08-02T14:41:03.102Z,6
2022-08-02T14:42:05.720Z,6
2022-08-02T14:43:06.712Z,6
2022-08-02T14:44:13.700Z,6
2022-08-02T14:45:15.487Z,7
2022-08-02T14:46:17.598Z,8
2022-08-02T14:47:19.110Z,9
2022-08-02T14:48:21.228Z,9
2022-08-02T14:49:24.900Z,8
2022-08-02T14:50:28.750Z,8
2022-08-02T14:51:30.386Z,7
2022-08-02T14:52:32.461Z,7
2022-08-02T14:53:37.839Z,7
2022-08-02T14:55:17.202Z,7
2022-08-02T14:56:18.730Z,7
2022-08-02T14:57:20.375Z,7
2022-08-02T14:58:24.588Z,7
2022-08-02T14:59:26.159Z,7
2022-08-02T15:00:28.224Z,7
2022-08-02T15:01:41.460Z,7
2022-08-02T15:02:43.360Z,6
2022-08-02T15:03:44.356Z,7
2022-08-02T15:04:46.165Z,6
2022-08-02T15:05:47.466Z,6
2022-08-02T15:06:51.621Z,6
2022-08-02T15:07:52.648Z,6
2022-08-02T15:08:54.720Z,7
2022-08-02T15:09:56.114Z,7
2022-08-02T15:10:57.672Z,7
2022-08-02T15:12:02.270Z,8
2022-08-02T15:13:07.381Z,9
2022-08-02T15:14:11.387Z,8
2022-08-02T15:15:13.500Z,9
2022-08-02T15:16:15.597Z,8
2022-08-02T15:17:19.856Z,7
2022-08-02T15:18:21.406Z,7
2022-08-02T15:19:29.508Z,8
2022-08-02T15:21:40.737Z,8
2022-08-02T15:23:04.301Z,8
2022-08-02T15:24:13.030Z,7
2022-08-02T15:25:15.000Z,6
2022-08-02T15:26:17.174Z,6
2022-08-02T15:27:19.242Z,6
2022-08-02T15:28:24.057Z,6
2022-08-02T15:29:27.495Z,6
2022-08-02T15:30:28.809Z,6
2022-08-02T15:31:33.577Z,6
2022-08-02T15:32:52.773Z,6
2022-08-02T15:33:54.880Z,6
2022-08-02T15:34:56.443Z,6
2022-08-02T15:35:58.585Z,6
2022-08-02T15:37:00.941Z,6
2022-08-02T15:38:02.568Z,6
2022-08-02T15:39:04.773Z,6
2022-08-02T15:40:06.918Z,6
2022-08-02T15:41:08.479Z,7
2022-08-02T15:42:09.747Z,8
2022-08-02T15:43:14.460Z,8
2022-08-02T15:44:16.823Z,8
2022-08-02T15:45:18.119Z,8
2022-08-02T15:46:20.744Z,7
2022-08-02T15:47:21.972Z,7
2022-08-02T15:48:23.252Z,7
2022-08-02T15:49:24.443Z,7
2022-08-02T15:50:27.100Z,7
2022-08-02T15:51:28.088Z,7
2022-08-02T15:52:29.423Z,7
2022-08-02T15:53:38.599Z,8
2022-08-02T15:54:40.441Z,8
2022-08-02T15:55:52.518Z,8